sensor_id;sensor_type;location;lat;lon;timestamp;P1;durP1;ratioP1;P2;durP2;ratioP2
32505;SDS011;18955;51.224;8.482;2023-01-28T00:00:08;2.10;;;1.73;;
32505;SDS011;18955;51.224;8.482;2023-01-28T00:02:35;3.53;;;2.85;;
32505;SDS011;18955;51.224;8.482;2023-01-28T00:05:01;2.30;;;2.03;;
32505;SDS011;18955;51.224;8.482;2023-01-28T00:07:28;5.05;;;2.92;;
32505;SDS011;18955;51.224;8.482;2023-01-28T00:09:54;3.28;;;2.70;;
32505;SDS011;18955;51.224;8.482;2023-01-28T00:12:20;4.53;;;3.40;;
32505;SDS011;18955;51.224;8.482;2023-01-28T00:14:47;3.15;;;2.47;;
32505;SDS011;18955;51.224;8.482;2023-01-28T00:17:13;3.45;;;2.60;;
32505;SDS011;18955;51.224;8.482;2023-01-28T00:19:40;2.88;;;2.55;;
32505;SDS011;18955;51.224;8.482;2023-01-28T00:22:06;3.45;;;3.15;;
32505;SDS011;18955;51.224;8.482;2023-01-28T00:24:32;4.03;;;3.15;;
32505;SDS011;18955;51.224;8.482;2023-01-28T00:26:59;3.70;;;3.20;;
32505;SDS011;18955;51.224;8.482;2023-01-28T00:29:25;3.88;;;3.20;;
32505;SDS011;18955;51.224;8.482;2023-01-28T00:31:51;3.03;;;2.55;;
32505;SDS011;18955;51.224;8.482;2023-01-28T00:34:17;5.85;;;3.35;;
32505;SDS011;18955;51.224;8.482;2023-01-28T00:36:44;6.63;;;4.25;;
32505;SDS011;18955;51.224;8.482;2023-01-28T00:39:12;5.88;;;3.80;;
32505;SDS011;18955;51.224;8.482;2023-01-28T00:41:41;3.25;;;2.65;;
32505;SDS011;18955;51.224;8.482;2023-01-28T00:44:07;4.30;;;3.45;;
32505;SDS011;18955;51.224;8.482;2023-01-28T00:46:35;4.95;;;3.58;;
32505;SDS011;18955;51.224;8.482;2023-01-28T00:49:01;3.20;;;2.80;;
32505;SDS011;18955;51.224;8.482;2023-01-28T00:51:27;4.40;;;3.05;;
32505;SDS011;18955;51.224;8.482;2023-01-28T00:53:53;4.03;;;2.42;;
32505;SDS011;18955;51.224;8.482;2023-01-28T00:56:20;3.45;;;2.28;;
32505;SDS011;18955;51.224;8.482;2023-01-28T00:58:46;2.78;;;2.10;;
32505;SDS011;18955;51.224;8.482;2023-01-28T01:01:20;3.55;;;3.13;;
32505;SDS011;18955;51.224;8.482;2023-01-28T01:03:48;6.07;;;3.70;;
32505;SDS011;18955;51.224;8.482;2023-01-28T01:06:30;6.35;;;3.72;;
32505;SDS011;18955;51.224;8.482;2023-01-28T01:09:02;5.47;;;3.80;;
32505;SDS011;18955;51.224;8.482;2023-01-28T01:11:30;5.07;;;3.83;;
32505;SDS011;18955;51.224;8.482;2023-01-28T01:13:57;6.20;;;4.18;;
32505;SDS011;18955;51.224;8.482;2023-01-28T01:16:25;5.20;;;4.47;;
32505;SDS011;18955;51.224;8.482;2023-01-28T01:18:53;5.32;;;3.85;;
32505;SDS011;18955;51.224;8.482;2023-01-28T01:21:21;5.43;;;3.75;;
32505;SDS011;18955;51.224;8.482;2023-01-28T01:23:49;6.18;;;4.07;;
32505;SDS011;18955;51.224;8.482;2023-01-28T01:26:16;6.25;;;4.43;;
32505;SDS011;18955;51.224;8.482;2023-01-28T01:28:42;4.60;;;3.30;;
32505;SDS011;18955;51.224;8.482;2023-01-28T01:31:10;5.63;;;4.45;;
32505;SDS011;18955;51.224;8.482;2023-01-28T01:33:40;5.35;;;4.60;;
32505;SDS011;18955;51.224;8.482;2023-01-28T01:36:07;6.32;;;4.55;;
32505;SDS011;18955;51.224;8.482;2023-01-28T01:38:35;5.88;;;4.70;;
32505;SDS011;18955;51.224;8.482;2023-01-28T01:41:01;6.03;;;5.13;;
32505;SDS011;18955;51.224;8.482;2023-01-28T01:43:48;6.32;;;4.75;;
32505;SDS011;18955;51.224;8.482;2023-01-28T01:46:42;4.85;;;4.00;;
32505;SDS011;18955;51.224;8.482;2023-01-28T01:51:53;3.97;;;2.93;;
32505;SDS011;18955;51.224;8.482;2023-01-28T01:54:27;3.95;;;3.58;;
32505;SDS011;18955;51.224;8.482;2023-01-28T01:56:56;4.55;;;3.78;;
32505;SDS011;18955;51.224;8.482;2023-01-28T01:59:26;3.95;;;3.20;;
32505;SDS011;18955;51.224;8.482;2023-01-28T02:01:56;5.00;;;3.70;;
32505;SDS011;18955;51.224;8.482;2023-01-28T02:04:26;5.25;;;3.80;;
32505;SDS011;18955;51.224;8.482;2023-01-28T02:06:56;4.90;;;3.95;;
32505;SDS011;18955;51.224;8.482;2023-01-28T02:12:07;4.05;;;3.60;;
32505;SDS011;18955;51.224;8.482;2023-01-28T02:14:40;7.25;;;3.95;;
32505;SDS011;18955;51.224;8.482;2023-01-28T02:17:09;5.43;;;4.22;;
32505;SDS011;18955;51.224;8.482;2023-01-28T02:19:37;4.88;;;3.97;;
32505;SDS011;18955;51.224;8.482;2023-01-28T02:30:48;3.97;;;2.78;;
32505;SDS011;18955;51.224;8.482;2023-01-28T02:33:17;1.73;;;1.45;;
32505;SDS011;18955;51.224;8.482;2023-01-28T02:35:54;4.28;;;1.80;;
32505;SDS011;18955;51.224;8.482;2023-01-28T02:38:35;1.55;;;1.45;;
32505;SDS011;18955;51.224;8.482;2023-01-28T02:41:06;1.80;;;1.50;;
32505;SDS011;18955;51.224;8.482;2023-01-28T02:43:38;3.13;;;1.60;;
32505;SDS011;18955;51.224;8.482;2023-01-28T02:49:13;1.40;;;1.30;;
32505;SDS011;18955;51.224;8.482;2023-01-28T02:56:55;1.77;;;1.05;;
32505;SDS011;18955;51.224;8.482;2023-01-28T02:59:41;0.85;;;0.85;;
32505;SDS011;18955;51.224;8.482;2023-01-28T03:02:26;2.55;;;1.50;;
32505;SDS011;18955;51.224;8.482;2023-01-28T03:07:32;1.70;;;1.20;;
32505;SDS011;18955;51.224;8.482;2023-01-28T03:10:02;1.52;;;1.42;;
32505;SDS011;18955;51.224;8.482;2023-01-28T03:12:31;2.33;;;1.73;;
32505;SDS011;18955;51.224;8.482;2023-01-28T03:15:24;1.17;;;1.08;;
32505;SDS011;18955;51.224;8.482;2023-01-28T03:21:14;1.33;;;1.17;;
32505;SDS011;18955;51.224;8.482;2023-01-28T03:26:55;3.15;;;1.55;;
32505;SDS011;18955;51.224;8.482;2023-01-28T03:29:55;3.78;;;1.20;;
32505;SDS011;18955;51.224;8.482;2023-01-28T03:32:44;1.33;;;1.10;;
32505;SDS011;18955;51.224;8.482;2023-01-28T03:35:30;1.90;;;1.30;;
32505;SDS011;18955;51.224;8.482;2023-01-28T03:38:18;2.65;;;1.30;;
32505;SDS011;18955;51.224;8.482;2023-01-28T03:43:24;3.28;;;1.13;;
32505;SDS011;18955;51.224;8.482;2023-01-28T03:45:52;2.10;;;1.40;;
32505;SDS011;18955;51.224;8.482;2023-01-28T03:48:24;1.30;;;1.20;;
32505;SDS011;18955;51.224;8.482;2023-01-28T03:50:53;1.77;;;1.52;;
32505;SDS011;18955;51.224;8.482;2023-01-28T03:53:22;2.15;;;1.45;;
32505;SDS011;18955;51.224;8.482;2023-01-28T03:55:50;2.47;;;1.52;;
32505;SDS011;18955;51.224;8.482;2023-01-28T03:58:18;2.20;;;1.30;;
32505;SDS011;18955;51.224;8.482;2023-01-28T04:00:45;1.90;;;1.30;;
32505;SDS011;18955;51.224;8.482;2023-01-28T04:03:16;2.35;;;1.42;;
32505;SDS011;18955;51.224;8.482;2023-01-28T04:06:00;1.88;;;1.30;;
32505;SDS011;18955;51.224;8.482;2023-01-28T04:08:51;1.95;;;1.38;;
32505;SDS011;18955;51.224;8.482;2023-01-28T04:11:32;1.60;;;1.50;;
32505;SDS011;18955;51.224;8.482;2023-01-28T04:14:04;1.30;;;1.20;;
32505;SDS011;18955;51.224;8.482;2023-01-28T04:16:41;1.40;;;1.30;;
32505;SDS011;18955;51.224;8.482;2023-01-28T04:19:08;1.63;;;1.50;;
32505;SDS011;18955;51.224;8.482;2023-01-28T04:21:35;1.30;;;1.17;;
32505;SDS011;18955;51.224;8.482;2023-01-28T04:24:03;2.47;;;1.50;;
32505;SDS011;18955;51.224;8.482;2023-01-28T04:28:56;1.70;;;1.60;;
32505;SDS011;18955;51.224;8.482;2023-01-28T04:31:22;1.67;;;1.58;;
32505;SDS011;18955;51.224;8.482;2023-01-28T04:34:14;2.60;;;2.20;;
32505;SDS011;18955;51.224;8.482;2023-01-28T04:36:50;3.35;;;2.53;;
32505;SDS011;18955;51.224;8.482;2023-01-28T04:39:38;2.70;;;2.50;;
32505;SDS011;18955;51.224;8.482;2023-01-28T04:42:27;2.80;;;2.50;;
32505;SDS011;18955;51.224;8.482;2023-01-28T04:45:02;3.35;;;2.85;;
32505;SDS011;18955;51.224;8.482;2023-01-28T04:47:47;5.60;;;3.40;;
32505;SDS011;18955;51.224;8.482;2023-01-28T04:50:37;3.08;;;2.72;;
32505;SDS011;18955;51.224;8.482;2023-01-28T04:53:26;4.97;;;3.17;;
32505;SDS011;18955;51.224;8.482;2023-01-28T04:56:04;3.38;;;3.05;;
32505;SDS011;18955;51.224;8.482;2023-01-28T04:58:33;3.28;;;2.97;;
32505;SDS011;18955;51.224;8.482;2023-01-28T05:01:04;5.18;;;3.30;;
32505;SDS011;18955;51.224;8.482;2023-01-28T05:03:31;4.07;;;2.92;;
32505;SDS011;18955;51.224;8.482;2023-01-28T05:05:57;2.95;;;2.67;;
32505;SDS011;18955;51.224;8.482;2023-01-28T05:08:40;6.55;;;3.47;;
32505;SDS011;18955;51.224;8.482;2023-01-28T05:13:34;6.25;;;3.30;;
32505;SDS011;18955;51.224;8.482;2023-01-28T05:16:01;5.30;;;3.85;;
32505;SDS011;18955;51.224;8.482;2023-01-28T05:18:27;4.85;;;3.70;;
32505;SDS011;18955;51.224;8.482;2023-01-28T05:21:12;4.82;;;3.78;;
32505;SDS011;18955;51.224;8.482;2023-01-28T05:23:39;3.78;;;3.38;;
32505;SDS011;18955;51.224;8.482;2023-01-28T05:26:05;4.38;;;3.50;;
32505;SDS011;18955;51.224;8.482;2023-01-28T05:28:33;3.33;;;3.00;;
32505;SDS011;18955;51.224;8.482;2023-01-28T05:31:03;4.50;;;3.45;;
32505;SDS011;18955;51.224;8.482;2023-01-28T05:33:32;5.15;;;3.42;;
32505;SDS011;18955;51.224;8.482;2023-01-28T05:35:59;4.68;;;3.70;;
32505;SDS011;18955;51.224;8.482;2023-01-28T05:38:27;5.35;;;3.50;;
32505;SDS011;18955;51.224;8.482;2023-01-28T05:40:53;3.58;;;3.28;;
32505;SDS011;18955;51.224;8.482;2023-01-28T05:43:20;6.03;;;4.07;;
32505;SDS011;18955;51.224;8.482;2023-01-28T05:46:13;6.35;;;3.95;;
32505;SDS011;18955;51.224;8.482;2023-01-28T05:49:00;3.92;;;3.58;;
32505;SDS011;18955;51.224;8.482;2023-01-28T05:51:45;4.30;;;3.90;;
32505;SDS011;18955;51.224;8.482;2023-01-28T05:54:15;5.88;;;4.20;;
32505;SDS011;18955;51.224;8.482;2023-01-28T05:56:42;4.22;;;3.65;;
32505;SDS011;18955;51.224;8.482;2023-01-28T05:59:11;4.68;;;3.92;;
32505;SDS011;18955;51.224;8.482;2023-01-28T06:01:40;5.28;;;3.83;;
32505;SDS011;18955;51.224;8.482;2023-01-28T06:04:07;4.05;;;3.65;;
32505;SDS011;18955;51.224;8.482;2023-01-28T06:06:33;4.10;;;3.40;;
32505;SDS011;18955;51.224;8.482;2023-01-28T06:09:01;4.35;;;3.53;;
32505;SDS011;18955;51.224;8.482;2023-01-28T06:11:29;4.13;;;3.22;;
32505;SDS011;18955;51.224;8.482;2023-01-28T06:14:00;4.75;;;3.58;;
32505;SDS011;18955;51.224;8.482;2023-01-28T06:16:41;3.05;;;2.75;;
32505;SDS011;18955;51.224;8.482;2023-01-28T06:19:10;4.40;;;4.00;;
32505;SDS011;18955;51.224;8.482;2023-01-28T06:21:36;3.80;;;3.40;;
32505;SDS011;18955;51.224;8.482;2023-01-28T06:24:03;3.50;;;3.20;;
32505;SDS011;18955;51.224;8.482;2023-01-28T06:26:29;4.50;;;3.60;;
32505;SDS011;18955;51.224;8.482;2023-01-28T06:28:56;4.05;;;3.65;;
32505;SDS011;18955;51.224;8.482;2023-01-28T06:31:22;5.13;;;3.63;;
32505;SDS011;18955;51.224;8.482;2023-01-28T06:33:48;3.30;;;2.88;;
32505;SDS011;18955;51.224;8.482;2023-01-28T06:36:14;6.95;;;4.63;;
32505;SDS011;18955;51.224;8.482;2023-01-28T06:38:40;5.82;;;4.20;;
32505;SDS011;18955;51.224;8.482;2023-01-28T06:41:07;6.90;;;4.82;;
32505;SDS011;18955;51.224;8.482;2023-01-28T06:43:33;9.38;;;5.20;;
32505;SDS011;18955;51.224;8.482;2023-01-28T06:45:59;5.75;;;4.05;;
32505;SDS011;18955;51.224;8.482;2023-01-28T06:48:26;6.90;;;5.55;;
32505;SDS011;18955;51.224;8.482;2023-01-28T06:50:53;10.15;;;5.78;;
32505;SDS011;18955;51.224;8.482;2023-01-28T06:53:19;8.48;;;5.82;;
32505;SDS011;18955;51.224;8.482;2023-01-28T06:55:46;8.13;;;5.13;;
32505;SDS011;18955;51.224;8.482;2023-01-28T06:58:12;4.55;;;3.25;;
32505;SDS011;18955;51.224;8.482;2023-01-28T07:00:38;4.80;;;4.32;;
32505;SDS011;18955;51.224;8.482;2023-01-28T07:03:04;6.15;;;5.18;;
32505;SDS011;18955;51.224;8.482;2023-01-28T07:05:31;4.88;;;4.38;;
32505;SDS011;18955;51.224;8.482;2023-01-28T07:07:57;6.80;;;5.03;;
32505;SDS011;18955;51.224;8.482;2023-01-28T07:10:23;6.25;;;5.35;;
32505;SDS011;18955;51.224;8.482;2023-01-28T07:12:50;7.40;;;5.50;;
32505;SDS011;18955;51.224;8.482;2023-01-28T07:15:16;4.38;;;3.88;;
32505;SDS011;18955;51.224;8.482;2023-01-28T07:17:42;5.10;;;4.45;;
32505;SDS011;18955;51.224;8.482;2023-01-28T07:20:10;4.38;;;3.97;;
32505;SDS011;18955;51.224;8.482;2023-01-28T07:22:39;5.53;;;4.45;;
32505;SDS011;18955;51.224;8.482;2023-01-28T07:25:06;8.25;;;4.72;;
32505;SDS011;18955;51.224;8.482;2023-01-28T07:27:33;7.20;;;4.30;;
32505;SDS011;18955;51.224;8.482;2023-01-28T07:30:00;7.03;;;4.15;;
32505;SDS011;18955;51.224;8.482;2023-01-28T07:32:26;3.50;;;2.90;;
32505;SDS011;18955;51.224;8.482;2023-01-28T07:34:53;3.80;;;3.42;;
32505;SDS011;18955;51.224;8.482;2023-01-28T07:37:19;4.40;;;3.47;;
32505;SDS011;18955;51.224;8.482;2023-01-28T07:39:46;5.85;;;3.70;;
32505;SDS011;18955;51.224;8.482;2023-01-28T07:42:12;4.30;;;3.88;;
32505;SDS011;18955;51.224;8.482;2023-01-28T07:44:45;5.43;;;3.80;;
32505;SDS011;18955;51.224;8.482;2023-01-28T07:47:11;4.10;;;3.20;;
32505;SDS011;18955;51.224;8.482;2023-01-28T07:49:37;3.88;;;3.47;;
32505;SDS011;18955;51.224;8.482;2023-01-28T07:52:07;3.53;;;3.22;;
32505;SDS011;18955;51.224;8.482;2023-01-28T07:54:33;4.05;;;3.05;;
32505;SDS011;18955;51.224;8.482;2023-01-28T07:57:00;3.65;;;3.20;;
32505;SDS011;18955;51.224;8.482;2023-01-28T07:59:26;5.57;;;3.40;;
32505;SDS011;18955;51.224;8.482;2023-01-28T08:01:52;5.28;;;3.80;;
32505;SDS011;18955;51.224;8.482;2023-01-28T08:04:19;3.97;;;3.63;;
32505;SDS011;18955;51.224;8.482;2023-01-28T08:06:45;3.45;;;3.15;;
32505;SDS011;18955;51.224;8.482;2023-01-28T08:11:38;3.85;;;3.20;;
32505;SDS011;18955;51.224;8.482;2023-01-28T08:14:04;4.35;;;3.40;;
32505;SDS011;18955;51.224;8.482;2023-01-28T08:16:31;3.78;;;3.20;;
32505;SDS011;18955;51.224;8.482;2023-01-28T08:18:57;3.40;;;2.75;;
32505;SDS011;18955;51.224;8.482;2023-01-28T08:21:23;2.90;;;2.65;;
32505;SDS011;18955;51.224;8.482;2023-01-28T08:23:50;4.60;;;3.00;;
32505;SDS011;18955;51.224;8.482;2023-01-28T08:26:16;5.40;;;3.20;;
32505;SDS011;18955;51.224;8.482;2023-01-28T08:28:42;4.10;;;2.95;;
32505;SDS011;18955;51.224;8.482;2023-01-28T08:31:09;3.08;;;2.58;;
32505;SDS011;18955;51.224;8.482;2023-01-28T08:33:35;1.90;;;1.80;;
32505;SDS011;18955;51.224;8.482;2023-01-28T08:36:02;1.88;;;1.25;;
32505;SDS011;18955;51.224;8.482;2023-01-28T08:38:30;3.47;;;1.92;;
32505;SDS011;18955;51.224;8.482;2023-01-28T08:40:56;4.15;;;2.10;;
32505;SDS011;18955;51.224;8.482;2023-01-28T08:43:24;1.90;;;1.48;;
32505;SDS011;18955;51.224;8.482;2023-01-28T08:45:50;2.97;;;1.75;;
32505;SDS011;18955;51.224;8.482;2023-01-28T08:48:17;3.50;;;2.55;;
32505;SDS011;18955;51.224;8.482;2023-01-28T08:50:44;2.30;;;2.10;;
32505;SDS011;18955;51.224;8.482;2023-01-28T08:55:38;2.85;;;1.70;;
32505;SDS011;18955;51.224;8.482;2023-01-28T08:58:05;2.55;;;1.90;;
32505;SDS011;18955;51.224;8.482;2023-01-28T09:00:34;3.25;;;2.38;;
32505;SDS011;18955;51.224;8.482;2023-01-28T09:05:27;3.80;;;2.38;;
32505;SDS011;18955;51.224;8.482;2023-01-28T09:07:54;3.35;;;2.10;;
32505;SDS011;18955;51.224;8.482;2023-01-28T09:10:20;2.63;;;1.35;;
32505;SDS011;18955;51.224;8.482;2023-01-28T09:12:47;1.80;;;1.70;;
32505;SDS011;18955;51.224;8.482;2023-01-28T09:15:13;2.50;;;1.60;;
32505;SDS011;18955;51.224;8.482;2023-01-28T09:17:40;4.40;;;1.60;;
32505;SDS011;18955;51.224;8.482;2023-01-28T09:20:07;4.13;;;1.58;;
32505;SDS011;18955;51.224;8.482;2023-01-28T09:22:34;3.88;;;1.83;;
32505;SDS011;18955;51.224;8.482;2023-01-28T09:25:00;4.53;;;3.05;;
32505;SDS011;18955;51.224;8.482;2023-01-28T09:27:26;6.28;;;1.98;;
32505;SDS011;18955;51.224;8.482;2023-01-28T09:29:53;2.78;;;1.67;;
32505;SDS011;18955;51.224;8.482;2023-01-28T09:32:19;2.50;;;2.03;;
32505;SDS011;18955;51.224;8.482;2023-01-28T09:34:45;4.68;;;3.35;;
32505;SDS011;18955;51.224;8.482;2023-01-28T09:37:12;2.53;;;1.15;;
32505;SDS011;18955;51.224;8.482;2023-01-28T09:39:39;3.35;;;2.45;;
32505;SDS011;18955;51.224;8.482;2023-01-28T09:45:20;3.40;;;2.38;;
32505;SDS011;18955;51.224;8.482;2023-01-28T09:47:33;3.75;;;2.97;;
32505;SDS011;18955;51.224;8.482;2023-01-28T09:50:04;7.82;;;3.13;;
32505;SDS011;18955;51.224;8.482;2023-01-28T09:52:34;6.38;;;2.65;;
32505;SDS011;18955;51.224;8.482;2023-01-28T09:55:04;3.25;;;2.75;;
32505;SDS011;18955;51.224;8.482;2023-01-28T09:57:46;4.15;;;2.60;;
32505;SDS011;18955;51.224;8.482;2023-01-28T10:00:22;4.28;;;3.10;;
32505;SDS011;18955;51.224;8.482;2023-01-28T10:05:59;5.38;;;3.58;;
32505;SDS011;18955;51.224;8.482;2023-01-28T10:08:43;5.18;;;3.92;;
32505;SDS011;18955;51.224;8.482;2023-01-28T10:19:47;3.90;;;2.88;;
32505;SDS011;18955;51.224;8.482;2023-01-28T10:22:20;5.05;;;3.25;;
32505;SDS011;18955;51.224;8.482;2023-01-28T10:24:52;5.20;;;3.03;;
32505;SDS011;18955;51.224;8.482;2023-01-28T10:27:28;4.90;;;3.47;;
32505;SDS011;18955;51.224;8.482;2023-01-28T10:29:55;7.85;;;5.13;;
32505;SDS011;18955;51.224;8.482;2023-01-28T10:32:32;4.50;;;2.90;;
32505;SDS011;18955;51.224;8.482;2023-01-28T10:35:00;5.50;;;3.58;;
32505;SDS011;18955;51.224;8.482;2023-01-28T10:37:30;5.47;;;3.83;;
32505;SDS011;18955;51.224;8.482;2023-01-28T10:40:00;5.53;;;3.55;;
32505;SDS011;18955;51.224;8.482;2023-01-28T10:42:32;5.95;;;4.03;;
32505;SDS011;18955;51.224;8.482;2023-01-28T10:45:07;9.27;;;5.00;;
32505;SDS011;18955;51.224;8.482;2023-01-28T10:47:47;4.75;;;4.05;;
32505;SDS011;18955;51.224;8.482;2023-01-28T10:50:28;5.25;;;4.10;;
32505;SDS011;18955;51.224;8.482;2023-01-28T10:52:56;4.20;;;3.50;;
32505;SDS011;18955;51.224;8.482;2023-01-28T10:58:33;6.32;;;4.03;;
32505;SDS011;18955;51.224;8.482;2023-01-28T11:01:11;9.85;;;6.18;;
32505;SDS011;18955;51.224;8.482;2023-01-28T11:03:37;6.93;;;5.18;;
32505;SDS011;18955;51.224;8.482;2023-01-28T11:06:05;6.85;;;5.00;;
32505;SDS011;18955;51.224;8.482;2023-01-28T11:08:45;5.60;;;3.65;;
32505;SDS011;18955;51.224;8.482;2023-01-28T11:11:14;3.65;;;3.15;;
32505;SDS011;18955;51.224;8.482;2023-01-28T11:13:50;5.30;;;4.30;;
32505;SDS011;18955;51.224;8.482;2023-01-28T11:16:19;7.40;;;4.70;;
32505;SDS011;18955;51.224;8.482;2023-01-28T11:18:47;6.00;;;4.35;;
32505;SDS011;18955;51.224;8.482;2023-01-28T11:21:21;5.80;;;4.35;;
32505;SDS011;18955;51.224;8.482;2023-01-28T11:23:57;5.05;;;4.38;;
32505;SDS011;18955;51.224;8.482;2023-01-28T11:26:27;3.67;;;3.25;;
32505;SDS011;18955;51.224;8.482;2023-01-28T11:28:59;4.72;;;3.95;;
32505;SDS011;18955;51.224;8.482;2023-01-28T11:31:26;5.28;;;4.75;;
32505;SDS011;18955;51.224;8.482;2023-01-28T11:33:57;6.55;;;4.65;;
32505;SDS011;18955;51.224;8.482;2023-01-28T11:36:25;4.95;;;4.25;;
32505;SDS011;18955;51.224;8.482;2023-01-28T11:41:34;4.47;;;3.80;;
32505;SDS011;18955;51.224;8.482;2023-01-28T11:55:26;6.47;;;3.90;;
32505;SDS011;18955;51.224;8.482;2023-01-28T12:00:39;4.63;;;3.75;;
32505;SDS011;18955;51.224;8.482;2023-01-28T12:41:40;5.90;;;4.25;;
32505;SDS011;18955;51.224;8.482;2023-01-28T12:44:11;7.10;;;5.95;;
32505;SDS011;18955;51.224;8.482;2023-01-28T12:46:53;7.05;;;5.03;;
32505;SDS011;18955;51.224;8.482;2023-01-28T12:54:38;4.60;;;4.18;;
32505;SDS011;18955;51.224;8.482;2023-01-28T12:57:07;7.38;;;4.20;;
32505;SDS011;18955;51.224;8.482;2023-01-28T12:59:41;5.50;;;3.80;;
32505;SDS011;18955;51.224;8.482;2023-01-28T13:10:16;4.90;;;4.00;;
32505;SDS011;18955;51.224;8.482;2023-01-28T13:12:54;6.00;;;3.75;;
32505;SDS011;18955;51.224;8.482;2023-01-28T13:15:22;7.13;;;4.35;;
32505;SDS011;18955;51.224;8.482;2023-01-28T13:17:53;5.22;;;4.57;;
32505;SDS011;18955;51.224;8.482;2023-01-28T13:23:21;7.07;;;4.20;;
32505;SDS011;18955;51.224;8.482;2023-01-28T13:25:50;5.40;;;3.75;;
32505;SDS011;18955;51.224;8.482;2023-01-28T13:28:27;5.18;;;3.30;;
32505;SDS011;18955;51.224;8.482;2023-01-28T13:31:02;4.55;;;3.20;;
32505;SDS011;18955;51.224;8.482;2023-01-28T13:33:32;6.47;;;4.15;;
32505;SDS011;18955;51.224;8.482;2023-01-28T13:36:02;6.38;;;4.38;;
32505;SDS011;18955;51.224;8.482;2023-01-28T13:38:58;4.45;;;3.85;;
32505;SDS011;18955;51.224;8.482;2023-01-28T13:41:40;6.28;;;4.35;;
32505;SDS011;18955;51.224;8.482;2023-01-28T13:46:54;3.88;;;3.53;;
32505;SDS011;18955;51.224;8.482;2023-01-28T13:54:38;4.55;;;3.60;;
32505;SDS011;18955;51.224;8.482;2023-01-28T13:59:55;6.85;;;3.97;;
32505;SDS011;18955;51.224;8.482;2023-01-28T14:10:32;4.97;;;3.67;;
32505;SDS011;18955;51.224;8.482;2023-01-28T14:18:38;5.47;;;4.55;;
32505;SDS011;18955;51.224;8.482;2023-01-28T14:21:19;4.78;;;3.80;;
32505;SDS011;18955;51.224;8.482;2023-01-28T14:23:50;7.43;;;4.70;;
32505;SDS011;18955;51.224;8.482;2023-01-28T14:31:48;4.78;;;3.80;;
32505;SDS011;18955;51.224;8.482;2023-01-28T14:36:44;5.40;;;4.47;;
32505;SDS011;18955;51.224;8.482;2023-01-28T14:39:20;7.47;;;4.95;;
32505;SDS011;18955;51.224;8.482;2023-01-28T14:55:03;8.43;;;4.55;;
32505;SDS011;18955;51.224;8.482;2023-01-28T15:00:32;6.47;;;5.03;;
32505;SDS011;18955;51.224;8.482;2023-01-28T15:02:59;6.70;;;5.30;;
32505;SDS011;18955;51.224;8.482;2023-01-28T15:05:26;8.07;;;3.90;;
32505;SDS011;18955;51.224;8.482;2023-01-28T15:07:54;7.97;;;4.90;;
32505;SDS011;18955;51.224;8.482;2023-01-28T15:12:59;6.70;;;4.65;;
32505;SDS011;18955;51.224;8.482;2023-01-28T15:15:34;6.20;;;4.18;;
32505;SDS011;18955;51.224;8.482;2023-01-28T15:20:43;4.97;;;4.05;;
32505;SDS011;18955;51.224;8.482;2023-01-28T15:23:13;6.80;;;4.43;;
32505;SDS011;18955;51.224;8.482;2023-01-28T15:25:42;5.38;;;4.80;;
32505;SDS011;18955;51.224;8.482;2023-01-28T15:28:11;6.90;;;4.45;;
32505;SDS011;18955;51.224;8.482;2023-01-28T15:30:51;5.63;;;4.38;;
32505;SDS011;18955;51.224;8.482;2023-01-28T15:33:19;5.25;;;4.57;;
32505;SDS011;18955;51.224;8.482;2023-01-28T15:35:47;5.75;;;4.45;;
32505;SDS011;18955;51.224;8.482;2023-01-28T15:38:18;7.18;;;4.55;;
32505;SDS011;18955;51.224;8.482;2023-01-28T15:43:21;7.43;;;4.28;;
32505;SDS011;18955;51.224;8.482;2023-01-28T15:45:54;4.35;;;3.67;;
32505;SDS011;18955;51.224;8.482;2023-01-28T15:48:23;4.53;;;3.70;;
32505;SDS011;18955;51.224;8.482;2023-01-28T15:50:58;4.30;;;3.90;;
32505;SDS011;18955;51.224;8.482;2023-01-28T15:53:33;5.97;;;4.95;;
32505;SDS011;18955;51.224;8.482;2023-01-28T15:56:05;4.30;;;3.58;;
32505;SDS011;18955;51.224;8.482;2023-01-28T15:58:33;6.55;;;4.00;;
32505;SDS011;18955;51.224;8.482;2023-01-28T16:03:38;7.55;;;5.40;;
32505;SDS011;18955;51.224;8.482;2023-01-28T16:06:19;9.57;;;6.35;;
32505;SDS011;18955;51.224;8.482;2023-01-28T16:11:28;6.80;;;5.10;;
32505;SDS011;18955;51.224;8.482;2023-01-28T16:14:00;6.75;;;4.63;;
32505;SDS011;18955;51.224;8.482;2023-01-28T16:19:01;8.27;;;6.28;;
32505;SDS011;18955;51.224;8.482;2023-01-28T16:21:36;11.18;;;7.88;;
32505;SDS011;18955;51.224;8.482;2023-01-28T16:27:01;10.55;;;6.30;;
32505;SDS011;18955;51.224;8.482;2023-01-28T16:29:31;10.05;;;6.72;;
32505;SDS011;18955;51.224;8.482;2023-01-28T16:34:27;10.55;;;7.30;;
32505;SDS011;18955;51.224;8.482;2023-01-28T16:36:57;10.15;;;7.32;;
32505;SDS011;18955;51.224;8.482;2023-01-28T16:39:24;11.02;;;8.40;;
32505;SDS011;18955;51.224;8.482;2023-01-28T16:41:50;8.45;;;6.63;;
32505;SDS011;18955;51.224;8.482;2023-01-28T16:44:18;15.02;;;8.77;;
32505;SDS011;18955;51.224;8.482;2023-01-28T16:46:44;17.35;;;10.48;;
32505;SDS011;18955;51.224;8.482;2023-01-28T16:49:11;14.32;;;10.10;;
32505;SDS011;18955;51.224;8.482;2023-01-28T16:51:39;19.98;;;11.88;;
32505;SDS011;18955;51.224;8.482;2023-01-28T16:54:10;12.35;;;8.57;;
32505;SDS011;18955;51.224;8.482;2023-01-28T16:56:39;10.07;;;7.50;;
32505;SDS011;18955;51.224;8.482;2023-01-28T17:01:35;7.07;;;5.35;;
32505;SDS011;18955;51.224;8.482;2023-01-28T17:04:02;15.30;;;8.55;;
32505;SDS011;18955;51.224;8.482;2023-01-28T17:06:34;14.93;;;8.73;;
32505;SDS011;18955;51.224;8.482;2023-01-28T17:09:03;24.15;;;12.68;;
32505;SDS011;18955;51.224;8.482;2023-01-28T17:11:30;37.72;;;18.67;;
32505;SDS011;18955;51.224;8.482;2023-01-28T17:16:23;33.83;;;15.35;;
32505;SDS011;18955;51.224;8.482;2023-01-28T17:18:50;19.98;;;11.43;;
32505;SDS011;18955;51.224;8.482;2023-01-28T17:21:16;12.18;;;8.38;;
32505;SDS011;18955;51.224;8.482;2023-01-28T17:23:43;18.95;;;11.05;;
32505;SDS011;18955;51.224;8.482;2023-01-28T17:26:11;18.58;;;10.70;;
32505;SDS011;18955;51.224;8.482;2023-01-28T17:28:39;16.75;;;9.55;;
32505;SDS011;18955;51.224;8.482;2023-01-28T17:31:09;8.10;;;6.43;;
32505;SDS011;18955;51.224;8.482;2023-01-28T17:33:38;7.88;;;5.72;;
32505;SDS011;18955;51.224;8.482;2023-01-28T17:36:05;7.72;;;6.85;;
32505;SDS011;18955;51.224;8.482;2023-01-28T17:38:32;6.88;;;5.80;;
32505;SDS011;18955;51.224;8.482;2023-01-28T17:41:01;5.85;;;4.93;;
32505;SDS011;18955;51.224;8.482;2023-01-28T17:43:29;8.18;;;6.85;;
32505;SDS011;18955;51.224;8.482;2023-01-28T17:48:22;10.38;;;7.07;;
32505;SDS011;18955;51.224;8.482;2023-01-28T17:50:48;11.90;;;7.90;;
32505;SDS011;18955;51.224;8.482;2023-01-28T17:53:14;8.57;;;6.70;;
32505;SDS011;18955;51.224;8.482;2023-01-28T17:55:40;10.45;;;6.97;;
32505;SDS011;18955;51.224;8.482;2023-01-28T17:58:07;8.40;;;7.45;;
32505;SDS011;18955;51.224;8.482;2023-01-28T18:00:33;9.32;;;7.47;;
32505;SDS011;18955;51.224;8.482;2023-01-28T18:02:59;11.73;;;7.95;;
32505;SDS011;18955;51.224;8.482;2023-01-28T18:05:25;8.10;;;7.30;;
32505;SDS011;18955;51.224;8.482;2023-01-28T18:07:52;9.05;;;7.20;;
32505;SDS011;18955;51.224;8.482;2023-01-28T18:10:18;5.63;;;5.03;;
32505;SDS011;18955;51.224;8.482;2023-01-28T18:12:44;5.55;;;4.78;;
32505;SDS011;18955;51.224;8.482;2023-01-28T18:15:11;8.88;;;7.20;;
32505;SDS011;18955;51.224;8.482;2023-01-28T18:17:37;10.02;;;7.35;;
32505;SDS011;18955;51.224;8.482;2023-01-28T18:20:04;8.40;;;6.20;;
32505;SDS011;18955;51.224;8.482;2023-01-28T18:24:57;8.75;;;7.57;;
32505;SDS011;18955;51.224;8.482;2023-01-28T18:27:23;10.02;;;8.43;;
32505;SDS011;18955;51.224;8.482;2023-01-28T18:29:49;7.65;;;5.40;;
32505;SDS011;18955;51.224;8.482;2023-01-28T18:32:17;11.27;;;8.30;;
32505;SDS011;18955;51.224;8.482;2023-01-28T18:34:43;10.23;;;7.30;;
32505;SDS011;18955;51.224;8.482;2023-01-28T18:37:09;10.23;;;7.40;;